sensor_id;sensor_type;location;lat;lon;timestamp;pressure;altitude;pressure_sealevel;temperature;humidity
48035;BME280;33812;46.480;6.834;2022-11-20T00:01:10;93284.34;;;21.17;39.93
48035;BME280;33812;46.480;6.834;2022-11-20T00:05:12;93287.13;;;21.17;39.86
48035;BME280;33812;46.480;6.834;2022-11-20T00:09:15;93296.69;;;21.25;39.88
48035;BME280;33812;46.480;6.834;2022-11-20T00:13:18;93299.25;;;21.19;39.76
48035;BME280;33812;46.480;6.834;2022-11-20T00:17:20;93299.09;;;21.13;39.78
48035;BME280;33812;46.480;6.834;2022-11-20T00:21:23;93304.06;;;21.06;39.73
48035;BME280;33812;46.480;6.834;2022-11-20T00:25:27;93309.94;;;21.08;39.84
48035;BME280;33812;46.480;6.834;2022-11-20T00:29:31;93310.25;;;21.10;39.65
48035;BME280;33812;46.480;6.834;2022-11-20T00:33:33;93313.91;;;21.07;39.78
48035;BME280;33812;46.480;6.834;2022-11-20T00:37:34;93313.03;;;21.10;39.60
48035;BME280;33812;46.480;6.834;2022-11-20T00:41:37;93309.03;;;21.11;39.63
48035;BME280;33812;46.480;6.834;2022-11-20T00:45:39;93319.28;;;21.10;39.53
48035;BME280;33812;46.480;6.834;2022-11-20T00:49:41;93327.59;;;21.10;39.50
48035;BME280;33812;46.480;6.834;2022-11-20T00:53:43;93331.59;;;21.09;39.41
48035;BME280;33812;46.480;6.834;2022-11-20T00:57:47;93321.31;;;21.10;39.44
48035;BME280;33812;46.480;6.834;2022-11-20T01:01:49;93321.75;;;21.08;39.42
48035;BME280;33812;46.480;6.834;2022-11-20T01:05:51;93330.47;;;21.07;39.56
48035;BME280;33812;46.480;6.834;2022-11-20T01:09:53;93335.13;;;21.10;39.31
48035;BME280;33812;46.480;6.834;2022-11-20T01:13:57;93344.94;;;21.11;39.24
48035;BME280;33812;46.480;6.834;2022-11-20T01:17:59;93339.09;;;21.09;39.44
48035;BME280;33812;46.480;6.834;2022-11-20T01:22:03;93344.75;;;21.05;39.33
48035;BME280;33812;46.480;6.834;2022-11-20T01:26:07;93356.13;;;21.07;39.09
48035;BME280;33812;46.480;6.834;2022-11-20T01:30:11;93355.34;;;21.07;39.39
48035;BME280;33812;46.480;6.834;2022-11-20T01:34:15;93356.91;;;21.08;39.59
48035;BME280;33812;46.480;6.834;2022-11-20T01:38:19;93348.63;;;21.08;39.16
48035;BME280;33812;46.480;6.834;2022-11-20T01:42:25;93346.63;;;21.08;39.39
48035;BME280;33812;46.480;6.834;2022-11-20T01:46:53;93347.94;;;21.04;39.30
48035;BME280;33812;46.480;6.834;2022-11-20T01:50:58;93350.25;;;21.05;39.10
48035;BME280;33812;46.480;6.834;2022-11-20T01:55:02;93347.84;;;21.07;39.15
48035;BME280;33812;46.480;6.834;2022-11-20T01:59:07;93346.41;;;21.02;39.08
48035;BME280;33812;46.480;6.834;2022-11-20T02:03:12;93347.06;;;21.07;38.96
48035;BME280;33812;46.480;6.834;2022-11-20T02:07:15;93348.28;;;21.06;38.98
48035;BME280;33812;46.480;6.834;2022-11-20T02:11:19;93352.56;;;21.07;39.05
48035;BME280;33812;46.480;6.834;2022-11-20T02:15:21;93342.44;;;21.04;39.10
48035;BME280;33812;46.480;6.834;2022-11-20T02:19:27;93349.38;;;21.08;38.93
48035;BME280;33812;46.480;6.834;2022-11-20T02:23:32;93348.41;;;21.02;38.96
48035;BME280;33812;46.480;6.834;2022-11-20T02:27:39;93350.38;;;21.01;38.81
48035;BME280;33812;46.480;6.834;2022-11-20T02:31:42;93354.94;;;20.95;38.79
48035;BME280;33812;46.480;6.834;2022-11-20T02:35:45;93353.72;;;20.96;39.00
48035;BME280;33812;46.480;6.834;2022-11-20T02:39:49;93358.38;;;20.99;39.06
48035;BME280;33812;46.480;6.834;2022-11-20T02:43:52;93359.34;;;20.93;38.65
48035;BME280;33812;46.480;6.834;2022-11-20T02:47:54;93359.25;;;20.96;38.86
48035;BME280;33812;46.480;6.834;2022-11-20T02:51:56;93366.66;;;20.99;38.79
48035;BME280;33812;46.480;6.834;2022-11-20T02:55:58;93363.31;;;20.92;38.65
48035;BME280;33812;46.480;6.834;2022-11-20T03:00:01;93362.25;;;20.89;38.54
48035;BME280;33812;46.480;6.834;2022-11-20T03:04:05;93362.88;;;20.93;38.66
48035;BME280;33812;46.480;6.834;2022-11-20T03:08:06;93364.88;;;20.93;38.61
48035;BME280;33812;46.480;6.834;2022-11-20T03:12:08;93371.16;;;20.93;38.80
48035;BME280;33812;46.480;6.834;2022-11-20T03:16:13;93368.75;;;20.95;38.57
48035;BME280;33812;46.480;6.834;2022-11-20T03:20:15;93368.75;;;20.95;38.71
48035;BME280;33812;46.480;6.834;2022-11-20T03:24:17;93373.25;;;21.02;38.81
48035;BME280;33812;46.480;6.834;2022-11-20T03:28:19;93377.03;;;20.95;38.51
48035;BME280;33812;46.480;6.834;2022-11-20T03:32:22;93377.13;;;20.92;38.49
48035;BME280;33812;46.480;6.834;2022-11-20T03:36:24;93392.50;;;20.93;38.24
48035;BME280;33812;46.480;6.834;2022-11-20T03:40:26;93380.69;;;20.92;38.45
48035;BME280;33812;46.480;6.834;2022-11-20T03:44:28;93381.13;;;20.90;38.44
48035;BME280;33812;46.480;6.834;2022-11-20T03:48:32;93390.50;;;20.93;38.24
48035;BME280;33812;46.480;6.834;2022-11-20T03:52:34;93394.06;;;20.94;38.44
48035;BME280;33812;46.480;6.834;2022-11-20T03:56:38;93389.88;;;20.89;38.49
48035;BME280;33812;46.480;6.834;2022-11-20T04:00:39;93398.91;;;20.89;38.23
48035;BME280;33812;46.480;6.834;2022-11-20T04:04:42;93402.44;;;20.90;38.30
48035;BME280;33812;46.480;6.834;2022-11-20T04:08:45;93399.16;;;20.95;38.15
48035;BME280;33812;46.480;6.834;2022-11-20T04:12:47;93393.25;;;20.93;38.06
48035;BME280;33812;46.480;6.834;2022-11-20T04:16:48;93405.91;;;20.94;38.20
48035;BME280;33812;46.480;6.834;2022-11-20T04:20:52;93401.91;;;20.95;38.07
48035;BME280;33812;46.480;6.834;2022-11-20T04:24:53;93402.78;;;20.92;38.08
48035;BME280;33812;46.480;6.834;2022-11-20T04:28:56;93399.69;;;20.90;38.23
48035;BME280;33812;46.480;6.834;2022-11-20T04:32:57;93392.41;;;20.83;38.05
48035;BME280;33812;46.480;6.834;2022-11-20T04:37:00;93395.94;;;20.84;38.04
48035;BME280;33812;46.480;6.834;2022-11-20T04:41:05;93395.81;;;20.87;38.31
48035;BME280;33812;46.480;6.834;2022-11-20T04:45:08;93388.97;;;20.79;37.97
48035;BME280;33812;46.480;6.834;2022-11-20T04:49:10;93399.91;;;20.83;38.21
48035;BME280;33812;46.480;6.834;2022-11-20T04:53:14;93396.06;;;20.80;38.14
48035;BME280;33812;46.480;6.834;2022-11-20T04:57:16;93404.66;;;20.82;38.21
48035;BME280;33812;46.480;6.834;2022-11-20T05:01:19;93403.91;;;20.82;37.88
48035;BME280;33812;46.480;6.834;2022-11-20T05:05:22;93406.22;;;20.83;37.98
48035;BME280;33812;46.480;6.834;2022-11-20T05:09:26;93410.19;;;20.82;38.32
48035;BME280;33812;46.480;6.834;2022-11-20T05:13:27;93402.78;;;20.79;38.32
48035;BME280;33812;46.480;6.834;2022-11-20T05:17:29;93398.25;;;20.85;38.12
48035;BME280;33812;46.480;6.834;2022-11-20T05:21:31;93406.78;;;20.78;37.92
48035;BME280;33812;46.480;6.834;2022-11-20T05:25:34;93409.88;;;20.80;37.91
48035;BME280;33812;46.480;6.834;2022-11-20T05:29:36;93409.66;;;20.74;38.22
48035;BME280;33812;46.480;6.834;2022-11-20T05:33:40;93411.28;;;20.85;38.41
48035;BME280;33812;46.480;6.834;2022-11-20T05:37:42;93404.75;;;20.92;38.07
48035;BME280;33812;46.480;6.834;2022-11-20T05:41:45;93407.63;;;20.88;38.33
48035;BME280;33812;46.480;6.834;2022-11-20T05:46:08;93410.72;;;20.90;38.22
48035;BME280;33812;46.480;6.834;2022-11-20T05:50:10;93420.56;;;20.91;39.26
48035;BME280;33812;46.480;6.834;2022-11-20T05:54:12;93417.59;;;20.72;39.15
48035;BME280;33812;46.480;6.834;2022-11-20T05:58:15;93413.94;;;21.01;39.15
48035;BME280;33812;46.480;6.834;2022-11-20T06:02:16;93418.16;;;20.80;38.79
48035;BME280;33812;46.480;6.834;2022-11-20T06:06:19;93421.13;;;20.86;38.85
48035;BME280;33812;46.480;6.834;2022-11-20T06:10:21;93415.59;;;20.86;38.70
48035;BME280;33812;46.480;6.834;2022-11-20T06:14:25;93411.41;;;20.81;38.49
48035;BME280;33812;46.480;6.834;2022-11-20T06:18:27;93424.66;;;20.86;38.42
48035;BME280;33812;46.480;6.834;2022-11-20T06:22:29;93419.69;;;20.81;38.33
48035;BME280;33812;46.480;6.834;2022-11-20T06:26:31;93415.16;;;20.87;38.62
48035;BME280;33812;46.480;6.834;2022-11-20T06:30:34;93416.81;;;20.85;38.25
48035;BME280;33812;46.480;6.834;2022-11-20T06:38:35;93419.16;;;20.99;38.32
48035;BME280;33812;46.480;6.834;2022-11-20T06:42:38;93417.16;;;20.87;38.43
48035;BME280;33812;46.480;6.834;2022-11-20T06:46:40;93412.72;;;21.02;39.37
48035;BME280;33812;46.480;6.834;2022-11-20T06:50:42;93421.53;;;21.10;39.91
48035;BME280;33812;46.480;6.834;2022-11-20T06:54:45;93421.78;;;20.90;39.94
48035;BME280;33812;46.480;6.834;2022-11-20T06:58:46;93413.16;;;20.88;39.96
48035;BME280;33812;46.480;6.834;2022-11-20T07:02:48;93421.28;;;21.18;40.01
48035;BME280;33812;46.480;6.834;2022-11-20T07:06:50;93420.41;;;21.21;40.74
48035;BME280;33812;46.480;6.834;2022-11-20T07:10:58;93432.69;;;21.07;40.54
48035;BME280;33812;46.480;6.834;2022-11-20T07:15:01;93440.47;;;20.99;40.95
48035;BME280;33812;46.480;6.834;2022-11-20T07:19:02;93445.53;;;21.00;40.50
48035;BME280;33812;46.480;6.834;2022-11-20T07:23:04;93444.00;;;20.99;40.87
48035;BME280;33812;46.480;6.834;2022-11-20T07:27:07;93453.03;;;21.13;41.07
48035;BME280;33812;46.480;6.834;2022-11-20T07:31:09;93452.75;;;20.98;41.28
48035;BME280;33812;46.480;6.834;2022-11-20T07:35:12;93456.38;;;21.08;41.92
48035;BME280;33812;46.480;6.834;2022-11-20T07:39:14;93462.22;;;21.10;41.13
48035;BME280;33812;46.480;6.834;2022-11-20T07:43:17;93465.66;;;21.01;41.49
48035;BME280;33812;46.480;6.834;2022-11-20T07:47:19;93468.63;;;21.07;41.79
48035;BME280;33812;46.480;6.834;2022-11-20T07:51:21;93467.97;;;21.02;41.80
48035;BME280;33812;46.480;6.834;2022-11-20T07:55:23;93473.41;;;21.06;41.85
48035;BME280;33812;46.480;6.834;2022-11-20T07:59:28;93474.47;;;21.22;41.55
48035;BME280;33812;46.480;6.834;2022-11-20T08:03:32;93468.75;;;21.03;41.60
48035;BME280;33812;46.480;6.834;2022-11-20T08:07:37;93464.75;;;21.17;41.42
48035;BME280;33812;46.480;6.834;2022-11-20T08:11:39;93469.19;;;21.14;41.06
48035;BME280;33812;46.480;6.834;2022-11-20T08:16:01;93460.72;;;21.31;40.58
48035;BME280;33812;46.480;6.834;2022-11-20T08:20:03;93459.31;;;21.26;40.20
48035;BME280;33812;46.480;6.834;2022-11-20T08:24:07;93467.38;;;21.21;40.18
48035;BME280;33812;46.480;6.834;2022-11-20T08:28:09;93464.31;;;21.19;40.51
48035;BME280;33812;46.480;6.834;2022-11-20T08:32:13;93467.38;;;21.21;40.43
48035;BME280;33812;46.480;6.834;2022-11-20T08:36:15;93471.47;;;21.29;40.33
48035;BME280;33812;46.480;6.834;2022-11-20T08:40:17;93463.94;;;21.30;40.17
48035;BME280;33812;46.480;6.834;2022-11-20T08:44:19;93474.34;;;21.25;39.93
48035;BME280;33812;46.480;6.834;2022-11-20T08:48:22;93473.44;;;21.29;40.23
48035;BME280;33812;46.480;6.834;2022-11-20T08:52:23;93481.19;;;21.34;40.30
48035;BME280;33812;46.480;6.834;2022-11-20T08:56:27;93476.66;;;21.27;40.19
48035;BME280;33812;46.480;6.834;2022-11-20T09:00:29;93475.88;;;21.40;40.22
48035;BME280;33812;46.480;6.834;2022-11-20T09:04:32;93480.41;;;21.33;39.57
48035;BME280;33812;46.480;6.834;2022-11-20T09:08:34;93482.06;;;21.31;39.26
48035;BME280;33812;46.480;6.834;2022-11-20T09:12:37;93479.94;;;21.35;38.99
48035;BME280;33812;46.480;6.834;2022-11-20T09:16:39;93478.41;;;21.34;39.45
48035;BME280;33812;46.480;6.834;2022-11-20T09:20:42;93471.50;;;21.52;39.28
48035;BME280;33812;46.480;6.834;2022-11-20T09:24:44;93479.63;;;21.68;38.93
48035;BME280;33812;46.480;6.834;2022-11-20T09:28:46;93481.59;;;21.81;38.79
48035;BME280;33812;46.480;6.834;2022-11-20T09:32:47;93491.44;;;21.82;39.05
48035;BME280;33812;46.480;6.834;2022-11-20T09:36:51;93489.63;;;21.88;39.13
48035;BME280;33812;46.480;6.834;2022-11-20T09:40:57;93486.41;;;21.90;38.96
48035;BME280;33812;46.480;6.834;2022-11-20T09:45:13;93483.97;;;21.92;39.01
48035;BME280;33812;46.480;6.834;2022-11-20T09:49:23;93499.22;;;21.96;39.19
48035;BME280;33812;46.480;6.834;2022-11-20T09:53:36;93496.47;;;21.96;38.93
48035;BME280;33812;46.480;6.834;2022-11-20T09:57:46;93495.13;;;22.01;39.16
48035;BME280;33812;46.480;6.834;2022-11-20T10:01:49;93498.38;;;22.09;39.04
48035;BME280;33812;46.480;6.834;2022-11-20T10:05:54;93480.88;;;22.12;39.27
48035;BME280;33812;46.480;6.834;2022-11-20T10:09:57;93481.97;;;22.15;39.28
48035;BME280;33812;46.480;6.834;2022-11-20T10:14:08;93481.06;;;22.18;39.35
48035;BME280;33812;46.480;6.834;2022-11-20T10:18:26;93480.16;;;22.21;39.30
48035;BME280;33812;46.480;6.834;2022-11-20T10:22:43;93485.91;;;22.27;39.37
48035;BME280;33812;46.480;6.834;2022-11-20T10:26:56;93482.53;;;22.32;39.55
48035;BME280;33812;46.480;6.834;2022-11-20T10:31:08;93482.53;;;22.32;39.39
48035;BME280;33812;46.480;6.834;2022-11-20T10:35:20;93477.66;;;22.36;39.69
48035;BME280;33812;46.480;6.834;2022-11-20T10:39:29;93467.09;;;22.21;39.18
48035;BME280;33812;46.480;6.834;2022-11-20T10:43:39;93468.03;;;22.28;38.70
48035;BME280;33812;46.480;6.834;2022-11-20T10:47:41;93469.28;;;22.27;39.23
48035;BME280;33812;46.480;6.834;2022-11-20T10:51:52;93470.22;;;22.33;38.86
48035;BME280;33812;46.480;6.834;2022-11-20T10:56:05;93468.09;;;22.37;39.52
48035;BME280;33812;46.480;6.834;2022-11-20T11:00:11;93472.25;;;22.32;40.07
48035;BME280;33812;46.480;6.834;2022-11-20T11:04:26;93467.47;;;22.33;39.95
48035;BME280;33812;46.480;6.834;2022-11-20T11:08:35;93464.25;;;22.34;39.79
48035;BME280;33812;46.480;6.834;2022-11-20T11:12:43;93462.56;;;22.37;39.78
48035;BME280;33812;46.480;6.834;2022-11-20T11:16:50;93457.34;;;22.39;39.93
48035;BME280;33812;46.480;6.834;2022-11-20T11:20:54;93445.03;;;22.40;39.88
48035;BME280;33812;46.480;6.834;2022-11-20T11:24:56;93431.53;;;22.42;39.71
48035;BME280;33812;46.480;6.834;2022-11-20T11:29:00;93438.16;;;22.45;39.74
48035;BME280;33812;46.480;6.834;2022-11-20T11:33:06;93435.56;;;22.51;39.75
48035;BME280;33812;46.480;6.834;2022-11-20T11:37:13;93435.09;;;22.52;39.95
48035;BME280;33812;46.480;6.834;2022-11-20T11:41:20;93415.25;;;22.54;40.78
48035;BME280;33812;46.480;6.834;2022-11-20T11:45:22;93408.34;;;22.58;40.64
48035;BME280;33812;46.480;6.834;2022-11-20T11:49:26;93392.34;;;22.53;41.03
48035;BME280;33812;46.480;6.834;2022-11-20T11:53:28;93390.66;;;22.56;41.09
48035;BME280;33812;46.480;6.834;2022-11-20T11:57:40;93387.28;;;22.61;41.65
48035;BME280;33812;46.480;6.834;2022-11-20T12:01:45;93369.13;;;22.60;41.46
48035;BME280;33812;46.480;6.834;2022-11-20T12:05:55;93357.94;;;22.64;41.63
48035;BME280;33812;46.480;6.834;2022-11-20T12:10:00;93354.09;;;22.70;40.74
48035;BME280;33812;46.480;6.834;2022-11-20T12:14:11;93347.03;;;22.79;41.35
48035;BME280;33812;46.480;6.834;2022-11-20T12:18:17;93339.19;;;22.77;42.01
48035;BME280;33812;46.480;6.834;2022-11-20T12:22:29;93345.19;;;22.76;42.54
48035;BME280;33812;46.480;6.834;2022-11-20T12:26:49;93341.16;;;22.77;42.87
48035;BME280;33812;46.480;6.834;2022-11-20T12:31:10;93328.09;;;22.77;42.93
48035;BME280;33812;46.480;6.834;2022-11-20T12:35:28;93321.78;;;22.77;42.76
48035;BME280;33812;46.480;6.834;2022-11-20T12:39:40;93322.09;;;22.79;43.21
48035;BME280;33812;46.480;6.834;2022-11-20T12:43:47;93333.94;;;22.70;43.37
48035;BME280;33812;46.480;6.834;2022-11-20T12:48:45;93326.06;;;22.68;41.85
48035;BME280;33812;46.480;6.834;2022-11-20T12:52:53;93331.00;;;22.64;41.44
48035;BME280;33812;46.480;6.834;2022-11-20T12:57:06;93309.16;;;22.66;42.05
48035;BME280;33812;46.480;6.834;2022-11-20T13:01:21;93294.41;;;22.69;41.81
48035;BME280;33812;46.480;6.834;2022-11-20T13:05:50;93313.16;;;22.65;41.63
48035;BME280;33812;46.480;6.834;2022-11-20T13:09:53;93313.16;;;22.65;41.03
48035;BME280;33812;46.480;6.834;2022-11-20T13:14:23;93313.63;;;22.64;41.01
48035;BME280;33812;46.480;6.834;2022-11-20T13:18:26;93307.94;;;22.67;41.29
48035;BME280;33812;46.480;6.834;2022-11-20T13:22:42;93320.53;;;22.68;41.27
48035;BME280;33812;46.480;6.834;2022-11-20T13:26:45;93328.38;;;22.70;41.12
48035;BME280;33812;46.480;6.834;2022-11-20T13:30:51;93319.63;;;22.72;41.40
48035;BME280;33812;46.480;6.834;2022-11-20T13:34:55;93310.69;;;22.67;40.47
48035;BME280;33812;46.480;6.834;2022-11-20T13:38:57;93316.69;;;22.66;40.49
48035;BME280;33812;46.480;6.834;2022-11-20T13:43:11;93314.41;;;22.64;40.49
48035;BME280;33812;46.480;6.834;2022-11-20T13:47:22;93304.84;;;22.65;40.21
48035;BME280;33812;46.480;6.834;2022-11-20T13:51:31;93300.56;;;22.64;40.14
48035;BME280;33812;46.480;6.834;2022-11-20T13:55:38;93289.47;;;22.64;40.12
48035;BME280;33812;46.480;6.834;2022-11-20T13:59:53;93292.25;;;22.64;40.11
48035;BME280;33812;46.480;6.834;2022-11-20T14:03:57;93282.69;;;22.65;40.19
48035;BME280;33812;46.480;6.834;2022-11-20T14:08:02;93283.47;;;22.66;39.85
48035;BME280;33812;46.480;6.834;2022-11-20T14:12:15;93291.00;;;22.65;39.75
48035;BME280;33812;46.480;6.834;2022-11-20T14:16:19;93282.69;;;22.65;39.59
48035;BME280;33812;46.480;6.834;2022-11-20T14:20:24;93285.78;;;22.67;39.45
48035;BME280;33812;46.480;6.834;2022-11-20T14:24:27;93283.47;;;22.66;39.44
48035;BME280;33812;46.480;6.834;2022-11-20T14:28:30;93278.69;;;22.66;39.50
48035;BME280;33812;46.480;6.834;2022-11-20T14:32:35;93279.13;;;22.65;39.37
48035;BME280;33812;46.480;6.834;2022-11-20T14:36:38;93268.06;;;22.65;39.31
48035;BME280;33812;46.480;6.834;2022-11-20T14:40:40;93249.44;;;22.65;39.23
48035;BME280;33812;46.480;6.834;2022-11-20T14:44:43;93259.00;;;22.64;39.03
48035;BME280;33812;46.480;6.834;2022-11-20T14:48:46;93260.22;;;22.63;39.20
48035;BME280;33812;46.480;6.834;2022-11-20T14:52:54;93247.59;;;22.62;39.04
48035;BME280;33812;46.480;6.834;2022-11-20T14:56:57;93248.34;;;22.63;39.17
48035;BME280;33812;46.480;6.834;2022-11-20T15:01:03;93237.44;;;22.59;38.90
48035;BME280;33812;46.480;6.834;2022-11-20T15:05:05;93240.19;;;22.59;38.79
48035;BME280;33812;46.480;6.834;2022-11-20T15:09:15;93242.03;;;22.53;38.83
48035;BME280;33812;46.480;6.834;2022-11-20T15:13:22;93234.66;;;22.59;38.21
48035;BME280;33812;46.480;6.834;2022-11-20T15:17:26;93233.25;;;22.54;38.29
48035;BME280;33812;46.480;6.834;2022-11-20T15:21:27;93237.25;;;22.53;38.25
48035;BME280;33812;46.480;6.834;2022-11-20T15:25:31;93238.94;;;22.51;37.84
48035;BME280;33812;46.480;6.834;2022-11-20T15:29:32;93222.03;;;22.58;39.19
48035;BME280;33812;46.480;6.834;2022-11-20T15:33:34;93218.34;;;22.52;39.25
48035;BME280;33812;46.480;6.834;2022-11-20T15:37:36;93216.63;;;22.54;39.57
48035;BME280;33812;46.480;6.834;2022-11-20T15:41:39;93219.56;;;22.51;39.09
48035;BME280;33812;46.480;6.834;2022-11-20T15:45:43;93226.34;;;22.50;39.68
48035;BME280;33812;46.480;6.834;2022-11-20T15:49:46;93223.25;;;22.48;39.35
48035;BME280;33812;46.480;6.834;2022-11-20T15:53:48;93224.19;;;22.44;39.63
48035;BME280;33812;46.480;6.834;2022-11-20T15:57:51;93222.63;;;22.43;39.90
48035;BME280;33812;46.480;6.834;2022-11-20T16:01:53;93220.47;;;22.48;39.65
48035;BME280;33812;46.480;6.834;2022-11-20T16:05:55;93211.56;;;22.53;39.96
48035;BME280;33812;46.480;6.834;2022-11-20T16:09:57;93210.66;;;22.46;39.40
48035;BME280;33812;46.480;6.834;2022-11-20T16:14:00;93228.16;;;22.43;39.36
48035;BME280;33812;46.480;6.834;2022-11-20T16:18:21;93241.72;;;22.51;40.10
48035;BME280;33812;46.480;6.834;2022-11-20T16:22:23;93249.09;;;22.44;40.03
48035;BME280;33812;46.480;6.834;2022-11-20T16:26:25;93244.94;;;22.40;39.97
48035;BME280;33812;46.480;6.834;2022-11-20T16:30:28;93261.84;;;22.32;40.20
48035;BME280;33812;46.480;6.834;2022-11-20T16:34:29;93268.13;;;22.33;40.30
48035;BME280;33812;46.480;6.834;2022-11-20T16:38:31;93259.81;;;22.33;40.39
48035;BME280;33812;46.480;6.834;2022-11-20T16:42:34;93250.91;;;22.29;39.82
48035;BME280;33812;46.480;6.834;2022-11-20T16:46:38;93255.69;;;22.28;39.62
48035;BME280;33812;46.480;6.834;2022-11-20T16:50:45;93252.44;;;22.30;39.53
48035;BME280;33812;46.480;6.834;2022-11-20T16:54:47;93257.97;;;22.30;39.75
48035;BME280;33812;46.480;6.834;2022-11-20T16:58:50;93255.38;;;22.26;40.75
48035;BME280;33812;46.480;6.834;2022-11-20T17:02:53;93257.97;;;22.20;40.63
48035;BME280;33812;46.480;6.834;2022-11-20T17:06:57;93261.94;;;22.10;41.07
48035;BME280;33812;46.480;6.834;2022-11-20T17:11:04;93250.72;;;22.04;41.63
48035;BME280;33812;46.480;6.834;2022-11-20T17:15:06;93264.41;;;22.17;41.69
48035;BME280;33812;46.480;6.834;2022-11-20T17:19:10;93278.78;;;21.93;40.72
48035;BME280;33812;46.480;6.834;2022-11-20T17:23:12;93295.56;;;21.99;41.38
48035;BME280;33812;46.480;6.834;2022-11-20T17:27:14;93302.75;;;21.87;41.31
48035;BME280;33812;46.480;6.834;2022-11-20T17:31:16;93299.59;;;21.76;40.24
48035;BME280;33812;46.480;6.834;2022-11-20T17:35:19;93301.16;;;21.77;40.32
48035;BME280;33812;46.480;6.834;2022-11-20T17:39:21;93302.94;;;21.70;39.64
48035;BME280;33812;46.480;6.834;2022-11-20T17:43:22;93295.75;;;21.73;39.57
48035;BME280;33812;46.480;6.834;2022-11-20T17:47:24;93288.53;;;21.76;40.69
48035;BME280;33812;46.480;6.834;2022-11-20T17:51:29;93285.44;;;21.73;40.29
48035;BME280;33812;46.480;6.834;2022-11-20T17:55:31;93273.63;;;21.73;41.76
48035;BME280;33812;46.480;6.834;2022-11-20T17:59:54;93287.00;;;21.74;41.09
48035;BME280;33812;46.480;6.834;2022-11-20T18:03:56;93299.59;;;21.76;41.60
48035;BME280;33812;46.480;6.834;2022-11-20T18:07:59;93316.44;;;21.68;41.56
48035;BME280;33812;46.480;6.834;2022-11-20T18:12:01;93297.41;;;21.70;42.06
48035;BME280;33812;46.480;6.834;2022-11-20T18:16:05;93298.00;;;21.65;41.13
48035;BME280;33812;46.480;6.834;2022-11-20T18:20:07;93302.59;;;21.59;41.70
48035;BME280;33812;46.480;6.834;2022-11-20T18:24:11;93321.41;;;21.51;41.77
48035;BME280;33812;46.480;6.834;2022-11-20T18:28:13;93331.00;;;21.59;42.21
48035;BME280;33812;46.480;6.834;2022-11-20T18:32:14;93330.09;;;21.62;41.49
48035;BME280;33812;46.480;6.834;2022-11-20T18:36:17;93328.09;;;21.63;42.66
48035;BME280;33812;46.480;6.834;2022-11-20T18:40:21;93339.41;;;21.56;43.05
48035;BME280;33812;46.480;6.834;2022-11-20T18:44:24;93329.84;;;21.47;42.65
48035;BME280;33812;46.480;6.834;2022-11-20T18:48:43;93323.72;;;21.53;42.33
48035;BME280;33812;46.480;6.834;2022-11-20T18:52:45;93319.50;;;21.61;43.21
48035;BME280;33812;46.480;6.834;2022-11-20T18:56:48;93334.22;;;21.58;43.37
48035;BME280;33812;46.480;6.834;2022-11-20T19:00:50;93335.78;;;21.59;42.73
48035;BME280;33812;46.480;6.834;2022-11-20T19:04:53;93342.84;;;21.60;43.59
48035;BME280;33812;46.480;6.834;2022-11-20T19:08:54;93335.81;;;21.68;44.70
48035;BME280;33812;46.480;6.834;2022-11-20T19:12:57;93333.75;;;21.59;43.76
48035;BME280;33812;46.480;6.834;2022-11-20T19:16:59;93344.31;;;21.52;43.48
48035;BME280;33812;46.480;6.834;2022-11-20T19:21:06;93346.28;;;21.73;40.98
48035;BME280;33812;46.480;6.834;2022-11-20T19:25:08;93360.81;;;21.65;39.50
48035;BME280;33812;46.480;6.834;2022-11-20T19:29:12;93360.06;;;21.64;38.85
48035;BME280;33812;46.480;6.834;2022-11-20T19:33:14;93363.56;;;21.55;41.79
48035;BME280;33812;46.480;6.834;2022-11-20T19:37:16;93361.38;;;21.50;41.73
48035;BME280;33812;46.480;6.834;2022-11-20T19:41:19;93371.91;;;21.42;42.05
48035;BME280;33812;46.480;6.834;2022-11-20T19:45:22;93379.59;;;21.47;42.21
48035;BME280;33812;46.480;6.834;2022-11-20T19:49:24;93392.16;;;21.39;42.16
48035;BME280;33812;46.480;6.834;2022-11-20T19:53:26;93404.16;;;21.45;42.33
48035;BME280;33812;46.480;6.834;2022-11-20T19:57:30;93408.81;;;21.48;42.24
48035;BME280;33812;46.480;6.834;2022-11-20T20:01:34;93419.09;;;21.48;42.27
48035;BME280;33812;46.480;6.834;2022-11-20T20:05:35;93425.41;;;21.48;42.32
48035;BME280;33812;46.480;6.834;2022-11-20T20:09:37;93417.56;;;21.47;42.83
48035;BME280;33812;46.480;6.834;2022-11-20T20:13:40;93432.72;;;21.42;42.45
48035;BME280;33812;46.480;6.834;2022-11-20T20:17:43;93427.84;;;21.46;42.06
48035;BME280;33812;46.480;6.834;2022-11-20T20:21:45;93431.50;;;21.43;41.70
48035;BME280;33812;46.480;6.834;2022-11-20T20:25:49;93421.19;;;21.44;41.82
48035;BME280;33812;46.480;6.834;2022-11-20T20:29:50;93427.72;;;21.50;41.95
48035;BME280;33812;46.480;6.834;2022-11-20T20:33:54;93439.28;;;21.58;42.21
48035;BME280;33812;46.480;6.834;2022-11-20T20:37:56;93456.78;;;21.55;42.29
48035;BME280;33812;46.480;6.834;2022-11-20T20:41:58;93472.47;;;21.58;42.28
48035;BME280;33812;46.480;6.834;2022-11-20T20:45:59;93486.75;;;21.56;42.34
48035;BME280;33812;46.480;6.834;2022-11-20T20:50:03;93484.53;;;21.64;42.16
48035;BME280;33812;46.480;6.834;2022-11-20T20:54:06;93482.09;;;21.66;42.82
48035;BME280;33812;46.480;6.834;2022-11-20T20:58:07;93491.47;;;21.69;42.46
48035;BME280;33812;46.480;6.834;2022-11-20T21:02:09;93479.56;;;21.59;42.49
48035;BME280;33812;46.480;6.834;2022-11-20T21:06:13;93484.84;;;21.66;42.88
48035;BME280;33812;46.480;6.834;2022-11-20T21:10:15;93498.34;;;21.64;42.60
48035;BME280;33812;46.480;6.834;2022-11-20T21:14:17;93509.19;;;21.58;42.35
48035;BME280;33812;46.480;6.834;2022-11-20T21:18:20;93500.13;;;21.58;42.57
48035;BME280;33812;46.480;6.834;2022-11-20T21:22:23;93518.28;;;21.59;42.49
48035;BME280;33812;46.480;6.834;2022-11-20T21:26:25;93520.72;;;21.57;42.57
48035;BME280;33812;46.480;6.834;2022-11-20T21:30:27;93518.19;;;21.49;42.20
48035;BME280;33812;46.480;6.834;2022-11-20T21:34:29;93508.34;;;21.48;42.10
48035;BME280;33812;46.480;6.834;2022-11-20T21:38:32;93527.38;;;21.46;42.15